Jay Michael — WDD2051 — position and weather

sailwx.info

Track history (hours):
 
Tides and Currents Weather Stations Pressure Air Temp Water Temp Dewpoint Dewpoint Depression Visibility Wind Speed Wind Dir Waves Ship Positions

Jay Michael

Owner: Sterling Equipment Inc., Quincy, MA. More information available from US FCC via Universal Licensing System and Coast Guard Vessel Documentation Center.

Last reported at 2016-Jun-25 04:33 UTC. Time now 2016-Jun-25 05:20 UTC.
Position N 40°38' W 074°09'.

Length 21 m; draft 2.5 m.

Type: Tug. MMSI: 367110280.

Date/timePositionNaut miles runAvg speedWind from/ knotsBaromVisibWave heightAir tempDewpointWater temp
2016-Jun-25 04:33N 40°38' W 074°09'0 0.0
2016-Jun-25 03:33N 40°38' W 074°09'0 0.0
2016-Jun-25 02:33N 40°38' W 074°09'1 0.3
2016-Jun-24 22:33N 40°39' W 074°11'6 5.7
2016-Jun-24 21:33N 40°40' W 074°03'8 7.5
2016-Jun-24 20:33N 40°47' W 073°60'1 0.1
2016-Jun-24 04:33N 40°46' W 074°00'7 7.3
2016-Jun-24 03:33N 40°39' W 074°04'4 4.4
2016-Jun-24 02:33N 40°38' W 074°09'1 0.2
2016-Jun-23 22:29N 40°39' W 074°10'5 5.5
2016-Jun-23 21:33N 40°40' W 074°04'7 6.6
2016-Jun-23 20:33N 40°46' W 074°01'7 0.4
2016-Jun-23 02:11N 40°52' W 073°56'6 9.1
2016-Jun-23 01:33N 40°47' W 073°60'8 7.7
2016-Jun-23 00:33N 40°40' W 074°04'4 0.5
2016-Jun-22 15:31N 40°43' W 074°07'1 1.1
2016-Jun-22 14:31N 40°42' W 074°07'2 1.7
2016-Jun-22 13:31N 40°40' W 074°08'2 0.8
2016-Jun-22 10:33N 40°39' W 074°06'7 7.3
2016-Jun-22 09:33N 40°45' W 074°01'2 0.3
2016-Jun-22 01:33N 40°43' W 074°01'7 0.4
2016-Jun-21 09:29N 40°39' W 074°08'6 6.8
2016-Jun-21 08:33N 40°42' W 074°02'10 1.4
2016-Jun-21 01:15N 40°52' W 073°57'6 9.3
2016-Jun-21 00:33N 40°46' W 074°00'7 7.5
2016-Jun-20 23:33N 40°39' W 074°05'5 1.1
2016-Jun-20 18:33N 40°38' W 074°12'2 1.9
2016-Jun-20 17:33N 40°38' W 074°09'0 0.0
2016-Jun-20 16:33N 40°38' W 074°09'0 0.0
2016-Jun-20 15:33N 40°38' W 074°09'0 0.0
2016-Jun-20 14:34N 40°38' W 074°09'0 0.0
2016-Jun-20 13:33N 40°38' W 074°09'2 1.9
2016-Jun-20 12:24N 40°38' W 074°12'0 0.1
2016-Jun-20 11:33N 40°38' W 074°12'2 2.3
2016-Jun-20 10:33N 40°39' W 074°09'5 5.1
2016-Jun-20 09:33N 40°40' W 074°03'6 6.5
2016-Jun-20 08:33N 40°46' W 074°00'6 0.6
2016-Jun-19 23:18N 40°52' W 073°57'6 7.4
2016-Jun-19 22:33N 40°47' W 073°60'6 6.1
2016-Jun-19 21:33N 40°41' W 074°02'8 3.2
2016-Jun-19 19:06N 40°38' W 074°12'2 3.6
2016-Jun-19 18:33N 40°38' W 074°09'0 0.0
2016-Jun-19 17:33N 40°38' W 074°09'0 0.0
2016-Jun-19 16:33N 40°38' W 074°09'0 0.0
2016-Jun-19 15:33N 40°38' W 074°09'0 0.0
2016-Jun-19 13:28N 40°38' W 074°09'0 0.0
2016-Jun-19 12:31N 40°38' W 074°09'0 0.0
2016-Jun-19 04:33N 40°38' W 074°09'0 0.0
2016-Jun-19 03:33N 40°38' W 074°09'0 0.0
2016-Jun-19 02:33N 40°38' W 074°09'0 0.0
2016-Jun-19 01:34N 40°38' W 074°09'2 0.5
2016-Jun-18 21:32N 40°38' W 074°12'2 2.2
2016-Jun-18 20:33N 40°38' W 074°09'0 0.0
2016-Jun-18 19:33N 40°38' W 074°09'0 0.0
2016-Jun-18 18:33N 40°38' W 074°09'0 0.0
2016-Jun-18 17:34N 40°38' W 074°09'0 0.0
2016-Jun-18 16:33N 40°38' W 074°09'0 0.0
2016-Jun-18 15:33N 40°38' W 074°09'0 0.0
2016-Jun-18 14:33N 40°38' W 074°09'0 0.0
2016-Jun-18 13:33N 40°38' W 074°09'0 0.0
2016-Jun-18 12:34N 40°38' W 074°09'0 0.0
2016-Jun-18 11:33N 40°38' W 074°09'0 0.0
2016-Jun-18 10:33N 40°38' W 074°09'0 0.0
2016-Jun-18 09:33N 40°38' W 074°09'0 0.0
2016-Jun-18 08:33N 40°38' W 074°09'0 0.0
2016-Jun-18 07:33N 40°38' W 074°09'0 0.0
2016-Jun-18 06:33N 40°38' W 074°09'0 0.0
2016-Jun-18 05:33N 40°38' W 074°09'0 0.0
2016-Jun-18 04:33N 40°38' W 074°09'0 0.0
2016-Jun-18 03:33N 40°38' W 074°09'0 0.0
2016-Jun-18 02:33N 40°38' W 074°09'0 0.0
2016-Jun-18 01:33N 40°38' W 074°09'0 0.0
2016-Jun-18 00:33N 40°38' W 074°09'0 0.0
2016-Jun-17 23:32N 40°38' W 074°09'0 0.0
2016-Jun-17 22:33N 40°38' W 074°09'2 0.5
2016-Jun-17 18:19N 40°38' W 074°12'1 1.4
2016-Jun-17 17:33N 40°39' W 074°11'6 5.9
2016-Jun-17 16:33N 40°39' W 074°04'8 8.0
2016-Jun-17 15:33N 40°47' W 073°60'6 0.7
2016-Jun-17 07:06N 40°52' W 073°56'2 4.2
2016-Jun-17 06:33N 40°50' W 073°58'4 3.8
2016-Jun-17 05:33N 40°46' W 074°00'4 4.2
2016-Jun-17 04:33N 40°42' W 074°02'5 5.0
2016-Jun-17 03:33N 40°39' W 074°06'4 1.1
2016-Jun-16 23:27N 40°38' W 074°12'4 4.0
2016-Jun-16 22:33N 40°39' W 074°07'4 4.2
2016-Jun-16 21:33N 40°41' W 074°03'4 4.1
2016-Jun-16 20:33N 40°45' W 074°01'5 0.3
2016-Jun-16 02:15N 40°49' W 073°58'5 6.6
2016-Jun-16 01:34N 40°45' W 074°01'6 6.4
2016-Jun-16 00:33N 40°39' W 074°05'6 5.3
2016-Jun-15 23:31N 40°38' W 074°12'0 0.0
2016-Jun-15 22:33N 40°38' W 074°12'2 1.8
2016-Jun-15 21:31N 40°38' W 074°09'2 0.5
2016-Jun-15 17:30N 40°38' W 074°12'14 1.3
2016-Jun-15 06:33N 40°48' W 073°59'4 3.9
2016-Jun-15 05:33N 40°44' W 074°01'4 3.9
2016-Jun-15 04:33N 40°40' W 074°02'  
Track history (hours):
 
Tides and Currents Weather Stations Pressure Air Temp Water Temp Dewpoint Dewpoint Depression Visibility Wind Speed Wind Dir Waves Ship Positions

Jay Michael

Owner: Sterling Equipment Inc., Quincy, MA. More information available from US FCC via Universal Licensing System and Coast Guard Vessel Documentation Center.

Last reported at 2016-Jun-25 04:33 UTC. Time now 2016-Jun-25 05:20 UTC.
Position N 40°38' W 074°09'.

Length 21 m; draft 2.5 m.

Type: Tug. MMSI: 367110280.

Date/timePositionNaut miles runAvg speedWind from/ knotsBaromVisibWave heightAir tempDewpointWater temp
2016-Jun-25 04:33N 40°38' W 074°09'0 0.0
2016-Jun-25 03:33N 40°38' W 074°09'0 0.0
2016-Jun-25 02:33N 40°38' W 074°09'1 0.3
2016-Jun-24 22:33N 40°39' W 074°11'6 5.7
2016-Jun-24 21:33N 40°40' W 074°03'8 7.5
2016-Jun-24 20:33N 40°47' W 073°60'1 0.1
2016-Jun-24 04:33N 40°46' W 074°00'7 7.3
2016-Jun-24 03:33N 40°39' W 074°04'4 4.4
2016-Jun-24 02:33N 40°38' W 074°09'1 0.2
2016-Jun-23 22:29N 40°39' W 074°10'5 5.5
2016-Jun-23 21:33N 40°40' W 074°04'7 6.6
2016-Jun-23 20:33N 40°46' W 074°01'7 0.4
2016-Jun-23 02:11N 40°52' W 073°56'6 9.1
2016-Jun-23 01:33N 40°47' W 073°60'8 7.7
2016-Jun-23 00:33N 40°40' W 074°04'4 0.5
2016-Jun-22 15:31N 40°43' W 074°07'1 1.1
2016-Jun-22 14:31N 40°42' W 074°07'2 1.7
2016-Jun-22 13:31N 40°40' W 074°08'2 0.8
2016-Jun-22 10:33N 40°39' W 074°06'7 7.3
2016-Jun-22 09:33N 40°45' W 074°01'2 0.3
2016-Jun-22 01:33N 40°43' W 074°01'7 0.4
2016-Jun-21 09:29N 40°39' W 074°08'6 6.8
2016-Jun-21 08:33N 40°42' W 074°02'10 1.4
2016-Jun-21 01:15N 40°52' W 073°57'6 9.3
2016-Jun-21 00:33N 40°46' W 074°00'7 7.5
2016-Jun-20 23:33N 40°39' W 074°05'5 1.1
2016-Jun-20 18:33N 40°38' W 074°12'2 1.9
2016-Jun-20 17:33N 40°38' W 074°09'0 0.0
2016-Jun-20 16:33N 40°38' W 074°09'0 0.0
2016-Jun-20 15:33N 40°38' W 074°09'0 0.0
2016-Jun-20 14:34N 40°38' W 074°09'0 0.0
2016-Jun-20 13:33N 40°38' W 074°09'2 1.9
2016-Jun-20 12:24N 40°38' W 074°12'0 0.1
2016-Jun-20 11:33N 40°38' W 074°12'2 2.3
2016-Jun-20 10:33N 40°39' W 074°09'5 5.1
2016-Jun-20 09:33N 40°40' W 074°03'6 6.5
2016-Jun-20 08:33N 40°46' W 074°00'6 0.6
2016-Jun-19 23:18N 40°52' W 073°57'6 7.4
2016-Jun-19 22:33N 40°47' W 073°60'6 6.1
2016-Jun-19 21:33N 40°41' W 074°02'8 3.2
2016-Jun-19 19:06N 40°38' W 074°12'2 3.6
2016-Jun-19 18:33N 40°38' W 074°09'0 0.0
2016-Jun-19 17:33N 40°38' W 074°09'0 0.0
2016-Jun-19 16:33N 40°38' W 074°09'0 0.0
2016-Jun-19 15:33N 40°38' W 074°09'0 0.0
2016-Jun-19 13:28N 40°38' W 074°09'0 0.0
2016-Jun-19 12:31N 40°38' W 074°09'0 0.0
2016-Jun-19 04:33N 40°38' W 074°09'0 0.0
2016-Jun-19 03:33N 40°38' W 074°09'0 0.0
2016-Jun-19 02:33N 40°38' W 074°09'0 0.0
2016-Jun-19 01:34N 40°38' W 074°09'2 0.5
2016-Jun-18 21:32N 40°38' W 074°12'2 2.2
2016-Jun-18 20:33N 40°38' W 074°09'0 0.0
2016-Jun-18 19:33N 40°38' W 074°09'0 0.0
2016-Jun-18 18:33N 40°38' W 074°09'0 0.0
2016-Jun-18 17:34N 40°38' W 074°09'0 0.0
2016-Jun-18 16:33N 40°38' W 074°09'0 0.0
2016-Jun-18 15:33N 40°38' W 074°09'0 0.0
2016-Jun-18 14:33N 40°38' W 074°09'0 0.0
2016-Jun-18 13:33N 40°38' W 074°09'0 0.0
2016-Jun-18 12:34N 40°38' W 074°09'0 0.0
2016-Jun-18 11:33N 40°38' W 074°09'0 0.0
2016-Jun-18 10:33N 40°38' W 074°09'0 0.0
2016-Jun-18 09:33N 40°38' W 074°09'0 0.0
2016-Jun-18 08:33N 40°38' W 074°09'0 0.0
2016-Jun-18 07:33N 40°38' W 074°09'0 0.0
2016-Jun-18 06:33N 40°38' W 074°09'0 0.0
2016-Jun-18 05:33N 40°38' W 074°09'0 0.0
2016-Jun-18 04:33N 40°38' W 074°09'0 0.0
2016-Jun-18 03:33N 40°38' W 074°09'0 0.0
2016-Jun-18 02:33N 40°38' W 074°09'0 0.0
2016-Jun-18 01:33N 40°38' W 074°09'0 0.0
2016-Jun-18 00:33N 40°38' W 074°09'0 0.0
2016-Jun-17 23:32N 40°38' W 074°09'0 0.0
2016-Jun-17 22:33N 40°38' W 074°09'2 0.5
2016-Jun-17 18:19N 40°38' W 074°12'1 1.4
2016-Jun-17 17:33N 40°39' W 074°11'6 5.9
2016-Jun-17 16:33N 40°39' W 074°04'8 8.0
2016-Jun-17 15:33N 40°47' W 073°60'6 0.7
2016-Jun-17 07:06N 40°52' W 073°56'2 4.2
2016-Jun-17 06:33N 40°50' W 073°58'4 3.8
2016-Jun-17 05:33N 40°46' W 074°00'4 4.2
2016-Jun-17 04:33N 40°42' W 074°02'5 5.0
2016-Jun-17 03:33N 40°39' W 074°06'4 1.1
2016-Jun-16 23:27N 40°38' W 074°12'4 4.0
2016-Jun-16 22:33N 40°39' W 074°07'4 4.2
2016-Jun-16 21:33N 40°41' W 074°03'4 4.1
2016-Jun-16 20:33N 40°45' W 074°01'5 0.3
2016-Jun-16 02:15N 40°49' W 073°58'5 6.6
2016-Jun-16 01:34N 40°45' W 074°01'6 6.4
2016-Jun-16 00:33N 40°39' W 074°05'6 5.3
2016-Jun-15 23:31N 40°38' W 074°12'0 0.0
2016-Jun-15 22:33N 40°38' W 074°12'2 1.8
2016-Jun-15 21:31N 40°38' W 074°09'2 0.5
2016-Jun-15 17:30N 40°38' W 074°12'14 1.3
2016-Jun-15 06:33N 40°48' W 073°59'4 3.9
2016-Jun-15 05:33N 40°44' W 074°01'4 3.9
2016-Jun-15 04:33N 40°40' W 074°02'  

Dump ship's entire track history